createdAt,value
2018-12-12T00:01:34.363Z,15.17
2018-12-12T00:04:38.525Z,15.97
2018-12-12T00:07:42.552Z,16.80
2018-12-12T00:10:46.586Z,15.67
2018-12-12T00:13:50.622Z,18.10
2018-12-12T00:16:54.839Z,20.53
2018-12-12T00:19:58.855Z,17.07
2018-12-12T00:23:02.881Z,16.60
2018-12-12T00:26:07.006Z,15.30
2018-12-12T00:29:11.042Z,16.43
2018-12-12T00:32:15.073Z,16.03
2018-12-12T00:35:19.130Z,16.33
2018-12-12T00:38:23.166Z,15.47
2018-12-12T00:41:27.187Z,15.40
2018-12-12T00:44:31.215Z,16.20
2018-12-12T00:47:35.311Z,15.80
2018-12-12T00:50:39.429Z,15.90
2018-12-12T00:53:43.473Z,16.30
2018-12-12T00:56:47.590Z,16.27
2018-12-12T00:59:51.648Z,16.30
2018-12-12T01:02:55.663Z,16.63
2018-12-12T01:05:59.789Z,16.07
2018-12-12T01:09:06.931Z,15.37
2018-12-12T01:12:12.446Z,15.40
2018-12-12T01:15:16.479Z,16.03
2018-12-12T01:18:20.594Z,16.50
2018-12-12T01:21:25.567Z,16.60
2018-12-12T01:24:29.583Z,16.23
2018-12-12T01:27:33.611Z,17.03
2018-12-12T01:30:37.631Z,18.13
2018-12-12T01:33:41.639Z,19.00
2018-12-12T01:36:45.764Z,19.63
2018-12-12T01:39:49.969Z,18.93
2018-12-12T01:42:53.997Z,17.53
2018-12-12T01:45:58.019Z,17.10
2018-12-12T01:49:02.041Z,18.13
2018-12-12T01:52:06.058Z,18.70
2018-12-12T01:55:10.063Z,18.53
2018-12-12T01:58:14.098Z,17.60
2018-12-12T02:01:18.124Z,19.47
2018-12-12T02:04:22.138Z,17.80
2018-12-12T02:07:26.187Z,17.57
2018-12-12T02:10:30.283Z,18.50
2018-12-12T02:13:35.194Z,17.40
2018-12-12T02:16:39.294Z,18.57
2018-12-12T02:19:43.317Z,17.50
2018-12-12T02:22:47.347Z,17.50
2018-12-12T02:25:51.385Z,17.37
2018-12-12T02:28:55.438Z,16.33
2018-12-12T02:31:59.453Z,16.60
2018-12-12T02:35:03.554Z,17.77
2018-12-12T02:38:07.658Z,16.60
2018-12-12T02:41:11.787Z,17.10
2018-12-12T02:44:15.786Z,16.33
2018-12-12T02:47:19.811Z,16.43
2018-12-12T02:50:24.017Z,16.00
2018-12-12T02:53:28.025Z,16.50
2018-12-12T02:56:32.048Z,18.83
2018-12-12T02:59:36.078Z,17.83
2018-12-12T03:02:40.385Z,16.60
2018-12-12T03:05:44.409Z,17.47
2018-12-12T03:08:48.485Z,18.33
2018-12-12T03:11:52.474Z,18.60
2018-12-12T03:14:56.499Z,17.13
2018-12-12T03:18:00.528Z,16.80
2018-12-12T03:21:04.982Z,17.37
2018-12-12T03:24:08.983Z,18.30
2018-12-12T03:27:13.192Z,18.07
2018-12-12T03:30:17.215Z,17.63
2018-12-12T03:33:21.255Z,16.87
2018-12-12T03:36:25.260Z,17.57
2018-12-12T03:39:29.430Z,15.37
2018-12-12T03:42:33.842Z,15.43
2018-12-12T03:45:37.851Z,17.87
2018-12-12T03:48:41.870Z,16.97
2018-12-12T03:51:45.882Z,17.10
2018-12-12T03:54:49.898Z,16.73
2018-12-12T03:57:54.029Z,17.80
2018-12-12T04:00:58.794Z,16.30
2018-12-12T04:04:03.359Z,16.67
2018-12-12T04:07:07.468Z,15.90
2018-12-12T04:10:11.485Z,17.97
2018-12-12T04:13:15.518Z,16.30
2018-12-12T04:16:19.920Z,17.57
2018-12-12T04:19:23.938Z,15.40
2018-12-12T04:22:28.051Z,16.10
2018-12-12T04:25:32.083Z,15.80
2018-12-12T04:28:36.086Z,15.60
2018-12-12T04:31:40.119Z,15.40
2018-12-12T04:34:44.127Z,17.97
2018-12-12T04:37:48.151Z,15.73
2018-12-12T04:40:52.255Z,15.07
2018-12-12T04:43:56.270Z,17.10
2018-12-12T04:47:00.271Z,15.80
2018-12-12T04:50:04.494Z,17.87
2018-12-12T04:53:08.507Z,15.87
2018-12-12T04:56:12.530Z,17.27
2018-12-12T04:59:16.828Z,17.73
2018-12-12T05:02:26.027Z,18.73
2018-12-12T05:05:30.088Z,20.13
2018-12-12T05:08:34.117Z,16.50
2018-12-12T05:11:38.147Z,21.73
2018-12-12T05:14:42.187Z,17.93
2018-12-12T05:17:46.333Z,16.47
2018-12-12T05:20:50.645Z,17.47
2018-12-12T05:23:54.675Z,16.80
2018-12-12T05:26:58.682Z,18.30
2018-12-12T05:30:02.866Z,17.97
2018-12-12T05:33:06.879Z,16.10
2018-12-12T05:36:10.915Z,15.40
2018-12-12T05:39:14.934Z,16.97
2018-12-12T05:42:18.946Z,15.60
2018-12-12T05:45:23.182Z,15.23
2018-12-12T05:48:27.511Z,15.70
2018-12-12T05:51:32.742Z,14.63
2018-12-12T05:54:36.847Z,13.67
2018-12-12T05:57:41.056Z,13.97
2018-12-12T06:00:45.361Z,13.00
2018-12-12T06:03:49.390Z,14.63
2018-12-12T06:06:53.418Z,13.17
2018-12-12T06:09:57.471Z,14.37
2018-12-12T06:13:01.578Z,14.20
2018-12-12T06:16:05.602Z,13.20
2018-12-12T06:19:10.318Z,13.83
2018-12-12T06:22:14.619Z,16.67
2018-12-12T06:25:18.639Z,14.13
2018-12-12T06:28:22.655Z,15.63
2018-12-12T06:31:26.690Z,12.40
2018-12-12T06:34:30.690Z,14.60
2018-12-12T06:37:35.015Z,13.40
2018-12-12T06:40:39.023Z,12.90
2018-12-12T06:43:43.038Z,12.23
2018-12-12T06:46:47.054Z,12.77
2018-12-12T06:49:51.328Z,13.03
2018-12-12T06:52:55.356Z,13.23
2018-12-12T06:55:59.356Z,13.50
2018-12-12T06:59:03.390Z,12.33
2018-12-12T07:02:07.398Z,11.30
2018-12-12T07:05:11.514Z,10.87
2018-12-12T07:08:15.541Z,10.90
2018-12-12T07:11:19.621Z,10.83
2018-12-12T07:14:23.661Z,9.60
2018-12-12T07:17:27.695Z,11.73
2018-12-12T07:20:31.726Z,12.03
2018-12-12T07:23:35.754Z,11.23
2018-12-12T07:26:39.774Z,10.90
2018-12-12T07:29:43.901Z,12.23
2018-12-12T07:32:47.907Z,11.60
2018-12-12T07:35:51.971Z,11.03
2018-12-12T07:38:56.049Z,11.50
2018-12-12T07:42:00.064Z,11.77
2018-12-12T07:45:04.452Z,11.50
2018-12-12T07:48:08.481Z,10.47
2018-12-12T07:51:12.491Z,10.50
2018-12-12T07:54:16.517Z,9.40
2018-12-12T07:57:20.521Z,10.97
2018-12-12T08:00:24.538Z,10.63
2018-12-12T08:03:28.549Z,10.53
2018-12-12T08:06:32.566Z,8.00
2018-12-12T08:09:36.622Z,8.90
2018-12-12T08:12:40.649Z,10.50
2018-12-12T08:15:44.687Z,8.83
2018-12-12T08:18:48.962Z,9.43
2018-12-12T08:21:52.970Z,9.27
2018-12-12T08:24:57.686Z,9.40
2018-12-12T08:28:01.783Z,8.50
2018-12-12T08:31:05.810Z,10.30
2018-12-12T08:34:09.821Z,9.10
2018-12-12T08:37:13.824Z,9.50
2018-12-12T08:40:17.837Z,9.70
2018-12-12T08:43:21.898Z,9.57
2018-12-12T08:46:25.990Z,8.80
2018-12-12T08:49:30.093Z,8.70
2018-12-12T08:52:34.078Z,8.00
2018-12-12T08:55:38.187Z,8.60
2018-12-12T08:58:42.188Z,7.57
2018-12-12T09:01:46.261Z,7.60
2018-12-12T09:04:50.270Z,7.40
2018-12-12T09:07:54.255Z,7.37
2018-12-12T09:10:58.275Z,9.13
2018-12-12T09:14:02.392Z,9.57
2018-12-12T09:17:09.589Z,8.13
2018-12-12T09:20:12.486Z,7.90
2018-12-12T09:23:16.487Z,7.80
2018-12-12T09:26:20.502Z,8.80
2018-12-12T09:29:24.503Z,9.13
2018-12-12T09:32:28.585Z,7.70
2018-12-12T09:35:32.613Z,8.17
2018-12-12T09:38:36.599Z,10.50
2018-12-12T09:41:40.614Z,9.20
2018-12-12T09:44:44.609Z,8.50
2018-12-12T09:47:48.623Z,8.70
2018-12-12T09:50:52.613Z,7.93
2018-12-12T09:53:56.618Z,8.37
2018-12-12T09:57:00.627Z,7.67
2018-12-12T10:00:05.157Z,8.00
2018-12-12T10:03:09.171Z,7.90
2018-12-12T10:06:13.174Z,10.77
2018-12-12T10:09:17.201Z,7.23
2018-12-12T10:12:21.219Z,9.43
2018-12-12T10:15:25.331Z,8.10
2018-12-12T10:18:29.328Z,8.37
2018-12-12T10:21:33.310Z,7.67
2018-12-12T10:24:37.317Z,8.70
2018-12-12T10:27:41.391Z,7.10
2018-12-12T10:30:45.407Z,7.47
2018-12-12T10:33:49.398Z,7.43
2018-12-12T10:36:53.389Z,7.00
2018-12-12T10:39:57.476Z,6.90
2018-12-12T10:43:01.498Z,8.30
2018-12-12T10:46:05.505Z,8.57
2018-12-12T10:49:09.587Z,8.40
2018-12-12T10:52:13.583Z,7.63
2018-12-12T10:55:17.588Z,7.43
2018-12-12T10:58:21.591Z,6.77
2018-12-12T11:01:27.590Z,7.87
2018-12-12T11:04:31.600Z,6.70
2018-12-12T11:07:35.606Z,7.27
2018-12-12T11:10:39.891Z,7.77
2018-12-12T11:13:43.877Z,6.33
2018-12-12T11:16:47.895Z,5.50
2018-12-12T11:19:51.881Z,5.40
2018-12-12T11:22:55.890Z,9.97
2018-12-12T11:26:00.032Z,5.67
2018-12-12T11:29:04.041Z,5.83
2018-12-12T11:32:08.147Z,6.70
2018-12-12T11:35:12.249Z,5.17
2018-12-12T11:38:16.254Z,5.70
2018-12-12T11:41:20.368Z,5.20
2018-12-12T11:44:24.362Z,4.67
2018-12-12T11:47:28.358Z,6.77
2018-12-12T11:50:32.376Z,10.40
2018-12-12T11:53:36.382Z,7.90
2018-12-12T11:56:40.385Z,6.67
2018-12-12T11:59:44.396Z,5.10
2018-12-12T12:02:48.392Z,4.57
2018-12-12T12:05:52.400Z,4.10
2018-12-12T12:08:56.416Z,4.70
2018-12-12T12:12:00.438Z,3.67
2018-12-12T12:15:05.164Z,4.07
2018-12-12T12:18:09.183Z,4.10
2018-12-12T12:21:13.205Z,4.07
2018-12-12T12:24:17.214Z,5.60
2018-12-12T12:27:21.232Z,3.50
2018-12-12T12:30:25.246Z,4.00
2018-12-12T12:33:29.255Z,4.10
2018-12-12T12:36:33.345Z,4.67
2018-12-12T12:39:37.349Z,4.37
2018-12-12T12:42:41.340Z,3.70
2018-12-12T12:45:45.397Z,3.47
2018-12-12T12:48:49.390Z,4.10
2018-12-12T12:51:53.414Z,3.50
2018-12-12T12:54:57.446Z,3.40
2018-12-12T12:58:01.470Z,2.60
2018-12-12T13:01:05.483Z,2.70
2018-12-12T13:04:09.938Z,4.00
2018-12-12T13:07:14.130Z,3.30
2018-12-12T13:10:18.761Z,3.60
2018-12-12T13:13:23.092Z,3.60
2018-12-12T13:16:27.247Z,2.97
2018-12-12T13:19:31.249Z,10.60
2018-12-12T13:22:35.315Z,2.87
2018-12-12T13:25:39.330Z,3.90
2018-12-12T13:28:43.335Z,2.60
2018-12-12T13:31:48.359Z,3.60
2018-12-12T13:34:52.366Z,3.13
2018-12-12T13:37:56.460Z,3.50
2018-12-12T13:41:00.478Z,4.03
2018-12-12T13:44:04.572Z,4.13
2018-12-12T13:47:08.569Z,4.17
2018-12-12T13:50:12.582Z,4.00
2018-12-12T13:53:16.589Z,4.50
2018-12-12T13:56:20.614Z,4.80
2018-12-12T13:59:24.623Z,4.07
2018-12-12T14:02:28.719Z,3.90
2018-12-12T14:05:33.160Z,3.97
2018-12-12T14:08:37.154Z,3.70
2018-12-12T14:11:41.179Z,4.00
2018-12-12T14:14:45.759Z,5.60
2018-12-12T14:17:49.989Z,3.87
2018-12-12T14:20:54.079Z,3.87
2018-12-12T14:23:58.088Z,3.10
2018-12-12T14:27:02.097Z,3.13
2018-12-12T14:30:06.710Z,3.07
2018-12-12T14:33:10.715Z,2.80
2018-12-12T14:36:14.721Z,3.13
2018-12-12T14:39:18.722Z,3.23
2018-12-12T14:42:22.718Z,3.63
2018-12-12T14:45:26.794Z,3.57
2018-12-12T14:48:30.786Z,3.57
2018-12-12T14:51:34.800Z,3.73
2018-12-12T14:54:38.814Z,4.17
2018-12-12T14:57:42.815Z,4.70
2018-12-12T15:00:46.835Z,3.13
2018-12-12T15:03:50.832Z,3.07
2018-12-12T15:06:55.485Z,2.60
2018-12-12T15:09:59.856Z,2.50
2018-12-12T15:13:04.572Z,2.70
2018-12-12T15:16:08.706Z,3.07
2018-12-12T15:19:13.281Z,3.63
2018-12-12T15:22:17.367Z,3.50
2018-12-12T15:25:21.531Z,3.93
2018-12-12T15:28:26.094Z,4.13
2018-12-12T15:31:30.238Z,4.73
2018-12-12T15:34:34.249Z,4.80
2018-12-12T15:37:38.242Z,5.27
2018-12-12T15:40:42.234Z,5.00
2018-12-12T15:43:46.268Z,4.40
2018-12-12T15:46:50.262Z,4.30
2018-12-12T15:49:54.265Z,4.23
2018-12-12T15:52:58.292Z,3.20
2018-12-12T15:56:02.320Z,3.80
2018-12-12T15:59:06.344Z,3.40
2018-12-12T16:02:10.381Z,2.60
2018-12-12T16:05:14.396Z,2.33
2018-12-12T16:08:18.416Z,3.07
2018-12-12T16:11:23.367Z,7.07
2018-12-12T16:14:27.386Z,4.20
2018-12-12T16:17:31.534Z,3.50
2018-12-12T16:20:35.778Z,3.87
2018-12-12T16:23:39.794Z,3.30
2018-12-12T16:26:43.798Z,4.03
2018-12-12T16:29:47.882Z,3.33
2018-12-12T16:32:51.884Z,4.03
2018-12-12T16:35:55.878Z,4.60
2018-12-12T16:39:00.144Z,3.83
2018-12-12T16:42:04.135Z,4.00
2018-12-12T16:45:08.221Z,5.10
2018-12-12T16:48:12.209Z,5.17
2018-12-12T16:51:16.234Z,4.20
2018-12-12T16:54:20.262Z,5.00
2018-12-12T16:57:24.258Z,5.23
2018-12-12T17:00:28.344Z,5.37
2018-12-12T17:03:32.349Z,4.33
2018-12-12T17:06:36.461Z,4.83
2018-12-12T17:09:40.474Z,3.67
2018-12-12T17:12:44.596Z,4.47
2018-12-12T17:15:49.536Z,5.03
2018-12-12T17:18:53.534Z,5.23
2018-12-12T17:21:57.727Z,6.03
2018-12-12T17:25:02.050Z,6.13
2018-12-12T17:28:06.449Z,7.70
2018-12-12T17:31:10.602Z,5.87
2018-12-12T17:34:14.811Z,6.90
2018-12-12T17:37:18.822Z,7.10
2018-12-12T17:40:22.831Z,7.20
2018-12-12T17:43:26.834Z,5.83
2018-12-12T17:46:31.047Z,8.23
2018-12-12T17:49:35.183Z,6.40
2018-12-12T17:52:41.581Z,6.80
2018-12-12T17:55:45.654Z,12.17
2018-12-12T17:58:49.654Z,5.80
2018-12-12T18:01:53.655Z,8.67
2018-12-12T18:04:57.946Z,8.60
2018-12-12T18:08:01.966Z,7.97
2018-12-12T18:11:06.323Z,7.43
2018-12-12T18:14:10.903Z,11.87
2018-12-12T18:17:15.263Z,8.70
2018-12-12T18:20:19.352Z,7.80
2018-12-12T18:23:23.381Z,6.97
2018-12-12T18:26:27.371Z,8.13
2018-12-12T18:29:31.457Z,7.93
2018-12-12T18:32:35.478Z,8.60
2018-12-12T18:35:39.474Z,9.47
2018-12-12T18:38:43.486Z,8.03
2018-12-12T18:41:47.494Z,10.20
2018-12-12T18:44:51.525Z,10.83
2018-12-12T18:47:55.537Z,10.97
2018-12-12T18:50:59.558Z,10.30
2018-12-12T18:54:03.907Z,9.50
2018-12-12T18:57:08.102Z,9.40
2018-12-12T19:00:12.582Z,10.03
2018-12-12T19:03:16.711Z,10.80
2018-12-12T19:06:20.899Z,10.13
2018-12-12T19:09:25.116Z,9.00
2018-12-12T19:12:29.500Z,9.53
2018-12-12T19:15:34.111Z,9.03
2018-12-12T19:18:38.190Z,9.10
2018-12-12T19:21:42.293Z,9.87
2018-12-12T19:24:46.377Z,9.97
2018-12-12T19:27:50.454Z,10.70
2018-12-12T19:30:54.504Z,10.20
2018-12-12T19:33:58.550Z,10.13
2018-12-12T19:37:02.562Z,11.40
2018-12-12T19:40:07.715Z,10.83
2018-12-12T19:43:11.729Z,11.57
2018-12-12T19:46:16.350Z,11.60
2018-12-12T19:49:21.255Z,9.80
2018-12-12T19:52:25.538Z,9.80
2018-12-12T19:55:29.707Z,8.23
2018-12-12T19:58:33.769Z,9.27
2018-12-12T20:01:37.779Z,13.57
2018-12-12T20:04:42.816Z,12.60
2018-12-12T20:07:47.192Z,10.53
2018-12-12T20:10:51.259Z,10.50
2018-12-12T20:13:55.261Z,9.90
2018-12-12T20:16:59.818Z,8.90
2018-12-12T20:20:04.312Z,10.87
2018-12-12T20:23:08.485Z,10.20
2018-12-12T20:26:12.573Z,9.20
2018-12-12T20:29:16.575Z,9.67
2018-12-12T20:32:20.590Z,10.50
2018-12-12T20:35:24.638Z,9.03
2018-12-12T20:38:28.666Z,8.83
2018-12-12T20:41:32.675Z,8.30
2018-12-12T20:44:36.673Z,8.20
2018-12-12T20:47:40.750Z,9.30
2018-12-12T20:50:44.895Z,11.00
2018-12-12T20:53:49.090Z,9.20
2018-12-12T20:56:53.158Z,9.63
2018-12-12T20:59:57.201Z,8.47
2018-12-12T21:03:01.268Z,8.20
2018-12-12T21:06:05.702Z,10.60
2018-12-12T21:09:11.177Z,10.13
2018-12-12T21:12:16.238Z,10.57
2018-12-12T21:15:20.402Z,11.00
2018-12-12T21:18:25.402Z,9.60
2018-12-12T21:21:29.579Z,10.70
2018-12-12T21:24:33.697Z,9.67
2018-12-12T21:27:37.717Z,10.50
2018-12-12T21:30:41.739Z,9.73
2018-12-12T21:33:45.739Z,9.80
2018-12-12T21:36:49.783Z,10.10
2018-12-12T21:39:53.810Z,9.53
2018-12-12T21:42:57.835Z,9.33
2018-12-12T21:46:01.930Z,9.13
2018-12-12T21:49:06.048Z,9.57
2018-12-12T21:52:10.057Z,8.13
2018-12-12T21:55:14.149Z,9.57
2018-12-12T21:58:18.446Z,9.30
2018-12-12T22:01:22.629Z,10.50
2018-12-12T22:04:26.629Z,8.80
2018-12-12T22:07:31.438Z,8.93
2018-12-12T22:10:35.442Z,10.83
2018-12-12T22:13:40.066Z,9.70
2018-12-12T22:16:44.094Z,10.50
2018-12-12T22:19:48.115Z,12.37
2018-12-12T22:22:52.432Z,11.00
2018-12-12T22:25:56.965Z,10.50
2018-12-12T22:29:01.403Z,10.80
2018-12-12T22:32:06.033Z,10.30
2018-12-12T22:35:10.129Z,11.20
2018-12-12T22:38:14.158Z,9.77
2018-12-12T22:41:18.186Z,11.33
2018-12-12T22:44:22.202Z,12.10
2018-12-12T22:47:26.215Z,9.67
2018-12-12T22:50:30.226Z,10.00
2018-12-12T22:53:34.262Z,11.83
2018-12-12T22:56:38.291Z,10.60
2018-12-12T22:59:42.293Z,10.70
2018-12-12T23:02:46.688Z,11.87
2018-12-12T23:05:50.773Z,10.60
2018-12-12T23:08:54.834Z,12.10
2018-12-12T23:11:58.984Z,11.70
2018-12-12T23:15:03.133Z,11.20
2018-12-12T23:18:07.313Z,12.07
2018-12-12T23:21:11.326Z,12.37
2018-12-12T23:24:15.341Z,12.47
2018-12-12T23:27:19.354Z,9.63
2018-12-12T23:30:23.489Z,11.43
2018-12-12T23:33:27.606Z,12.00
2018-12-12T23:36:31.621Z,12.33
2018-12-12T23:39:35.677Z,11.73
2018-12-12T23:42:39.740Z,11.40
2018-12-12T23:45:43.739Z,12.13
2018-12-12T23:48:47.758Z,13.10
2018-12-12T23:51:51.841Z,15.80
2018-12-12T23:54:55.956Z,13.47
2018-12-12T23:57:59.986Z,10.90
